Time;durP1;ratioP1;P1;durP2;ratioP2;P2;SDS_P1;SDS_P2;PMS_P1;PMS_P2;Temp;Humidity;BMP_temperature;BMP_pressure;BME280_temperature;BME280_humidity;BME280_pressure;Samples;Min_cycle;Max_cycle;Signal;HPM_P1;HPM_P2
2022/05/08 00:00:29;;;;;;;26.03;24.00;;;14.20;47.40;;;;;;5073593;28;20456;-85
2022/05/08 00:02:57;;;;;;;25.70;24.20;;;14.20;47.20;;;;;;5073761;28;20512;-86
2022/05/08 00:05:23;;;;;;;24.80;23.40;;;14.20;47.40;;;;;;5073538;28;20179;-86
2022/05/08 00:07:49;;;;;;;24.73;23.13;;;14.10;47.90;;;;;;5073532;28;20449;-86
2022/05/08 00:10:15;;;;;;;25.93;24.20;;;14.10;48.50;;;;;;5073527;28;20417;-86
2022/05/08 00:12:40;;;;;;;25.90;24.20;;;14.10;47.60;;;;;;5073385;28;20171;-87
2022/05/08 00:15:06;;;;;;;26.53;24.40;;;14.20;47.40;;;;;;5073828;28;20179;-86
2022/05/08 00:17:34;;;;;;;25.53;23.63;;;14.10;47.50;;;;;;5073545;28;20179;-86
2022/05/08 00:20:01;;;;;;;24.77;23.23;;;14.00;47.90;;;;;;5074681;28;20480;-86
2022/05/08 00:22:27;;;;;;;25.50;23.80;;;14.00;48.00;;;;;;5074554;28;20784;-90
2022/05/08 00:24:52;;;;;;;26.80;25.13;;;14.00;48.10;;;;;;5074398;28;20402;-90
2022/05/08 00:27:19;;;;;;;26.10;24.20;;;13.90;48.50;;;;;;5074271;28;20207;-90
2022/05/08 00:29:44;;;;;;;28.17;25.60;;;13.80;48.80;;;;;;5074390;28;20198;-90
2022/05/08 00:32:10;;;;;;;26.10;24.20;;;13.90;48.20;;;;;;5073978;28;20418;-90
2022/05/08 00:34:36;;;;;;;26.30;24.47;;;14.00;48.20;;;;;;5073359;28;20262;-90
2022/05/08 00:37:01;;;;;;;25.90;23.90;;;13.90;48.10;;;;;;5074076;28;20171;-89
2022/05/08 00:39:27;;;;;;;26.07;24.33;;;13.80;48.60;;;;;;5074083;28;20206;-89
2022/05/08 00:41:52;;;;;;;24.73;23.23;;;13.90;48.50;;;;;;5073698;28;20176;-87
2022/05/08 00:44:18;;;;;;;24.53;23.03;;;13.80;48.90;;;;;;5073973;28;20175;-89
2022/05/08 00:46:44;;;;;;;24.77;23.20;;;13.70;49.00;;;;;;5073877;28;20207;-88
2022/05/08 00:49:09;;;;;;;25.60;23.70;;;13.70;49.20;;;;;;5073237;28;20179;-88
2022/05/08 00:51:36;;;;;;;26.77;25.07;;;13.70;49.80;;;;;;5072676;28;20176;-89
2022/05/08 00:54:03;;;;;;;25.17;23.20;;;13.60;50.30;;;;;;5072554;28;20175;-89
2022/05/08 00:56:29;;;;;;;25.03;23.20;;;13.60;50.00;;;;;;5072649;28;20413;-89
2022/05/08 00:58:56;;;;;;;25.03;23.37;;;13.50;50.00;;;;;;5072812;28;20756;-90
2022/05/08 01:01:22;;;;;;;25.50;23.60;;;13.50;50.50;;;;;;5073243;28;20499;-89
2022/05/08 01:03:48;;;;;;;25.30;23.40;;;13.50;50.80;;;;;;5072955;28;20410;-89
2022/05/08 01:06:16;;;;;;;26.43;24.57;;;13.50;50.90;;;;;;5072652;28;20413;-89
2022/05/08 01:08:44;;;;;;;23.77;22.23;;;13.50;50.70;;;;;;5073210;28;20418;-89
2022/05/08 01:11:10;;;;;;;25.63;23.87;;;13.50;51.30;;;;;;5073040;28;20879;-90
2022/05/08 01:13:36;;;;;;;24.97;23.40;;;13.40;50.90;;;;;;5072623;28;20464;-90
2022/05/08 01:16:06;;;;;;;25.03;23.33;;;13.50;51.40;;;;;;5072675;28;20460;-89
2022/05/08 01:18:31;;;;;;;27.53;24.93;;;13.40;51.70;;;;;;5072554;28;20418;-89
2022/05/08 01:20:57;;;;;;;27.83;25.77;;;13.50;51.10;;;;;;5072206;28;20467;-89
2022/05/08 01:23:23;;;;;;;25.10;23.20;;;13.50;50.50;;;;;;5072321;28;20167;-89
2022/05/08 01:25:53;;;;;;;26.07;24.10;;;13.50;50.70;;;;;;5072309;28;20277;-89
2022/05/08 01:28:21;;;;;;;29.60;27.70;;;13.40;51.10;;;;;;5073211;28;20205;-88
2022/05/08 01:30:49;;;;;;;26.60;24.97;;;13.40;51.70;;;;;;5072929;28;20425;-90
2022/05/08 01:33:15;;;;;;;25.67;23.90;;;13.30;52.00;;;;;;5072993;28;20468;-90
2022/05/08 01:35:44;;;;;;;24.33;22.80;;;13.20;52.50;;;;;;5073888;28;20394;-90
2022/05/08 01:38:12;;;;;;;26.27;24.67;;;13.20;53.40;;;;;;5072618;28;20416;-89
2022/05/08 01:40:39;;;;;;;25.20;23.50;;;13.20;52.30;;;;;;5072478;28;20413;-88
2022/05/08 01:43:05;;;;;;;25.13;23.33;;;13.20;52.50;;;;;;5072281;28;20459;-89
2022/05/08 01:45:31;;;;;;;28.90;27.10;;;13.20;52.60;;;;;;5071873;28;20428;-89
2022/05/08 01:50:42;;;;;;;26.53;24.37;;;13.20;52.50;;;;;;5073909;28;20417;-88
2022/05/08 01:53:07;;;;;;;25.50;23.73;;;13.00;53.00;;;;;;5073130;28;20435;-89
2022/05/08 01:55:33;;;;;;;25.63;24.03;;;13.00;53.40;;;;;;5073356;28;20425;-90
2022/05/08 01:57:59;;;;;;;31.40;29.50;;;13.00;54.00;;;;;;5073256;28;20171;-89
2022/05/08 02:00:26;;;;;;;24.73;23.13;;;13.00;53.70;;;;;;5072168;28;20266;-86
2022/05/08 02:02:53;;;;;;;24.33;22.83;;;13.10;53.40;;;;;;5074831;28;20905;-88
2022/05/08 02:05:22;;;;;;;26.73;24.73;;;13.10;53.00;;;;;;5070805;28;20420;-85
2022/05/08 02:07:49;;;;;;;24.43;22.60;;;13.20;52.90;;;;;;5070664;28;20468;-85
2022/05/08 02:10:16;;;;;;;23.80;22.33;;;13.10;53.40;;;;;;5070481;28;20417;-86
2022/05/08 02:12:43;;;;;;;25.80;24.00;;;12.90;54.00;;;;;;5070404;28;20409;-86
2022/05/08 02:15:11;;;;;;;25.03;23.40;;;12.90;54.00;;;;;;5071222;28;20438;-86
2022/05/08 02:17:37;;;;;;;25.47;23.70;;;13.00;54.00;;;;;;5069952;28;20417;-87
2022/05/08 02:20:06;;;;;;;25.67;23.77;;;12.90;54.00;;;;;;5070182;28;20413;-87
2022/05/08 02:22:36;;;;;;;26.17;24.27;;;12.90;54.10;;;;;;5069321;28;20436;-87
2022/05/08 02:25:02;;;;;;;25.50;23.40;;;12.80;54.70;;;;;;5069931;28;20791;-87
2022/05/08 02:27:36;;;;;;;24.50;22.90;;;12.80;55.00;;;;;;5070282;28;20510;-88
2022/05/08 02:30:07;;;;;;;23.37;21.87;;;12.80;54.90;;;;;;5070585;28;20535;-87
2022/05/08 02:32:33;;;;;;;24.77;23.07;;;12.80;55.20;;;;;;5069879;28;20421;-88
2022/05/08 02:34:59;;;;;;;22.93;21.33;;;12.70;55.80;;;;;;5070348;28;20425;-87
2022/05/08 02:37:25;;;;;;;28.23;26.53;;;12.70;55.70;;;;;;5069756;28;20199;-87
2022/05/08 02:39:50;;;;;;;24.60;22.60;;;12.70;55.70;;;;;;5069690;28;20184;-87
2022/05/08 02:42:16;;;;;;;24.40;22.83;;;12.70;55.70;;;;;;5070470;28;20183;-87
2022/05/08 02:44:41;;;;;;;24.97;23.00;;;12.70;55.90;;;;;;5069467;28;20542;-87
2022/05/08 02:47:07;;;;;;;24.07;22.37;;;12.70;55.30;;;;;;5069838;28;20305;-87
2022/05/08 02:49:32;;;;;;;24.77;22.70;;;12.70;55.20;;;;;;5070095;28;20183;-87
2022/05/08 02:51:58;;;;;;;23.93;22.27;;;12.70;55.20;;;;;;5069832;28;20182;-87
2022/05/08 02:54:24;;;;;;;22.83;21.20;;;12.70;55.70;;;;;;5069733;28;20182;-87
2022/05/08 02:59:33;;;;;;;29.67;27.37;;;12.70;55.50;;;;;;5071684;28;20182;-87
2022/05/08 03:01:59;;;;;;;25.53;23.83;;;12.80;54.60;;;;;;5070439;28;20500;-87
2022/05/08 03:04:25;;;;;;;25.27;23.17;;;12.80;54.80;;;;;;5070679;28;20236;-87
2022/05/08 03:06:50;;;;;;;24.70;22.70;;;12.80;54.60;;;;;;5069945;28;20232;-87
2022/05/08 03:09:16;;;;;;;24.53;22.80;;;12.70;55.40;;;;;;5070532;28;20175;-87
2022/05/08 03:11:41;;;;;;;24.23;22.60;;;12.60;56.20;;;;;;5070287;28;20200;-87
2022/05/08 03:14:08;;;;;;;24.20;22.70;;;12.50;56.90;;;;;;5070250;28;20556;-88
2022/05/08 03:16:33;;;;;;;25.50;23.60;;;12.50;56.80;;;;;;5070398;28;20562;-87
2022/05/08 03:18:59;;;;;;;24.57;22.90;;;12.50;56.20;;;;;;5070435;28;20414;-87
2022/05/08 03:21:25;;;;;;;31.15;29.15;;;12.50;56.40;;;;;;5068894;28;20425;-87
2022/05/08 03:23:51;;;;;;;25.13;23.30;;;12.60;56.20;;;;;;5069709;28;20635;-87
2022/05/08 03:26:19;;;;;;;24.63;22.93;;;12.50;56.60;;;;;;5070086;28;20452;-85
2022/05/08 03:28:45;;;;;;;24.30;22.50;;;12.50;56.70;;;;;;5070206;28;20814;-87
2022/05/08 03:31:14;;;;;;;23.03;21.40;;;12.40;57.00;;;;;;5073708;28;20792;-86
2022/05/08 03:33:40;;;;;;;24.60;23.00;;;12.50;57.20;;;;;;5073928;28;20441;-86
2022/05/08 03:36:10;;;;;;;24.20;22.60;;;12.50;57.30;;;;;;5073645;28;20421;-86
2022/05/08 03:38:40;;;;;;;22.53;21.00;;;12.50;56.80;;;;;;5074231;28;20171;-86
2022/05/08 03:41:07;;;;;;;24.30;22.50;;;12.40;57.10;;;;;;5074236;28;20417;-86
2022/05/08 03:43:34;;;;;;;24.30;22.40;;;12.40;57.10;;;;;;5073999;28;20513;-86
2022/05/08 03:45:59;;;;;;;23.13;21.33;;;12.40;57.50;;;;;;5073979;28;20879;-85
2022/05/08 03:48:25;;;;;;;24.17;22.33;;;12.40;57.70;;;;;;5074027;28;20495;-86
2022/05/08 03:50:51;;;;;;;24.57;22.63;;;12.30;57.70;;;;;;5073959;28;20426;-86
2022/05/08 03:53:17;;;;;;;23.53;22.00;;;12.30;58.10;;;;;;5074533;28;20183;-86
2022/05/08 03:55:43;;;;;;;23.87;22.07;;;12.30;58.20;;;;;;5073804;28;20175;-86
2022/05/08 03:58:17;;;;;;;25.93;24.13;;;12.20;58.10;;;;;;5074205;28;20426;-82
2022/05/08 04:00:44;;;;;;;25.00;23.10;;;12.20;58.30;;;;;;5074703;28;20253;-82
2022/05/08 04:03:10;;;;;;;25.50;23.50;;;12.20;58.70;;;;;;5074618;28;20422;-84
2022/05/08 04:05:38;;;;;;;25.03;23.33;;;12.10;58.90;;;;;;5073958;28;20785;-83
2022/05/08 04:08:04;;;;;;;31.40;29.30;;;12.10;58.80;;;;;;5074183;28;20798;-84
2022/05/08 04:10:30;;;;;;;25.03;23.20;;;12.10;59.10;;;;;;5073819;28;20418;-83
2022/05/08 04:12:55;;;;;;;25.33;23.27;;;12.20;59.10;;;;;;5074120;28;20402;-83
2022/05/08 04:18:07;;;;;;;26.43;24.43;;;12.20;59.60;;;;;;5075639;28;20170;-82
2022/05/08 04:20:32;;;;;;;25.23;23.43;;;12.20;59.60;;;;;;5073535;28;20405;-83
2022/05/08 04:25:42;;;;;;;25.50;23.33;;;12.10;60.60;;;;;;5075331;28;20198;-87
2022/05/08 04:28:08;;;;;;;26.90;24.50;;;12.10;60.50;;;;;;5073963;28;20449;-87
2022/05/08 04:30:34;;;;;;;26.03;24.10;;;12.20;59.90;;;;;;5073287;28;20305;-87
2022/05/08 04:33:00;;;;;;;27.20;24.90;;;12.20;60.30;;;;;;5073658;28;20198;-87
2022/05/08 04:35:26;;;;;;;26.10;24.13;;;12.30;59.80;;;;;;5073694;28;20901;-87
2022/05/08 04:37:52;;;;;;;23.57;21.60;;;12.30;59.80;;;;;;5073819;28;20186;-87
2022/05/08 04:40:17;;;;;;;23.40;21.50;;;12.30;59.50;;;;;;5073353;28;20198;-86
2022/05/08 04:42:43;;;;;;;23.97;22.07;;;12.20;58.90;;;;;;5073835;28;20243;-86
2022/05/08 04:45:09;;;;;;;24.30;22.60;;;12.20;58.80;;;;;;5073656;28;20182;-87
2022/05/08 04:47:34;;;;;;;23.20;21.67;;;12.20;59.40;;;;;;5073516;28;20191;-87
2022/05/08 04:50:00;;;;;;;24.70;22.80;;;12.10;59.80;;;;;;5073583;28;20416;-86
2022/05/08 04:52:26;;;;;;;22.00;20.50;;;12.00;60.50;;;;;;5073573;28;20194;-88
2022/05/08 04:54:51;;;;;;;25.43;23.30;;;12.00;61.00;;;;;;5073786;28;20176;-87
2022/05/08 04:57:17;;;;;;;23.17;21.50;;;12.10;60.60;;;;;;5073615;28;20654;-87
2022/05/08 04:59:42;;;;;;;22.80;21.07;;;12.00;60.60;;;;;;5073516;28;20183;-87
2022/05/08 05:02:08;;;;;;;24.87;23.07;;;12.00;61.30;;;;;;5073590;28;20646;-87
2022/05/08 05:04:35;;;;;;;23.53;21.63;;;12.10;61.30;;;;;;5073409;28;20183;-87
2022/05/08 05:07:01;;;;;;;24.10;22.30;;;12.10;61.10;;;;;;5073299;28;20679;-83
2022/05/08 05:09:27;;;;;;;25.33;23.37;;;12.10;60.70;;;;;;5073284;28;20418;-86
2022/05/08 05:11:52;;;;;;;28.20;25.60;;;12.00;61.80;;;;;;5073131;28;21089;-85
2022/05/08 05:14:18;;;;;;;26.90;24.33;;;12.00;60.90;;;;;;5073015;28;20561;-89
2022/05/08 05:16:44;;;;;;;25.50;23.50;;;12.00;61.90;;;;;;5073482;28;20575;-85
2022/05/08 05:19:12;;;;;;;25.30;23.20;;;12.00;62.00;;;;;;5074019;28;20179;-85
2022/05/08 05:21:38;;;;;;;25.17;23.20;;;12.10;62.20;;;;;;5073745;28;20577;-86
2022/05/08 05:26:34;;;;;;;27.80;25.20;;;12.20;61.30;;;;;;5030330;22;20283;-83
2022/05/08 05:29:00;;;;;;;24.93;23.13;;;12.10;60.80;;;;;;4996745;28;20412;-83
2022/05/08 05:31:26;;;;;;;26.33;24.00;;;12.20;61.30;;;;;;4996678;28;20181;-85
2022/05/08 05:33:51;;;;;;;25.87;23.83;;;12.30;61.20;;;;;;4996345;28;20637;-85
2022/05/08 05:36:17;;;;;;;24.40;22.50;;;12.30;61.00;;;;;;4996268;28;20439;-84
2022/05/08 05:38:42;;;;;;;26.00;23.87;;;12.40;61.20;;;;;;4996092;28;20178;-85
2022/05/08 05:41:08;;;;;;;26.70;24.60;;;12.30;60.60;;;;;;4995916;28;20196;-85
2022/05/08 05:43:34;;;;;;;27.87;25.70;;;12.30;60.70;;;;;;4995765;28;20231;-87
2022/05/08 05:48:44;;;;;;;27.43;24.77;;;12.40;60.20;;;;;;5013696;28;20419;-87
2022/05/08 05:51:09;;;;;;;25.07;22.87;;;12.40;60.20;;;;;;4995859;28;20412;-86
2022/05/08 05:53:35;;;;;;;27.70;25.47;;;12.20;60.80;;;;;;4995386;28;20212;-88
2022/05/08 05:56:01;;;;;;;27.27;25.23;;;12.40;60.60;;;;;;4996689;28;20660;-87
2022/05/08 05:58:27;;;;;;;25.73;23.70;;;12.30;60.00;;;;;;4996283;28;20181;-88
2022/05/08 06:00:53;;;;;;;26.03;23.70;;;12.30;60.30;;;;;;4996340;28;20416;-85
2022/05/08 06:03:28;;;;;;;26.40;24.40;;;12.40;62.10;;;;;;4996352;28;20432;-86
2022/05/08 06:05:53;;;;;;;28.40;26.17;;;12.50;60.90;;;;;;4996138;28;20583;-86
2022/05/08 06:08:19;;;;;;;25.70;23.30;;;12.50;61.50;;;;;;4995844;28;20452;-86
2022/05/08 06:10:45;;;;;;;26.80;24.20;;;12.40;61.30;;;;;;4996126;28;20199;-86
2022/05/08 06:13:10;;;;;;;28.43;26.07;;;12.40;60.80;;;;;;4996095;28;20670;-85
2022/05/08 06:15:36;;;;;;;26.43;24.30;;;12.40;61.40;;;;;;4995604;28;20185;-86
2022/05/08 06:18:02;;;;;;;27.17;25.00;;;12.50;61.60;;;;;;4995769;28;20189;-86
2022/05/08 06:20:28;;;;;;;27.73;25.40;;;12.60;61.10;;;;;;4995666;28;20189;-85
2022/05/08 06:22:54;;;;;;;36.03;33.27;;;12.50;60.40;;;;;;4995867;28;20571;-88
2022/05/08 06:25:20;;;;;;;29.47;27.20;;;12.70;60.80;;;;;;5013624;28;20637;-87
2022/05/08 06:27:45;;;;;;;27.60;25.30;;;12.80;60.00;;;;;;4996064;28;20542;-85
2022/05/08 06:30:12;;;;;;;29.27;26.90;;;12.90;59.30;;;;;;4995894;28;20224;-85
2022/05/08 06:32:37;;;;;;;27.57;25.10;;;12.90;58.20;;;;;;4995923;28;20185;-87
2022/05/08 06:35:03;;;;;;;25.63;23.83;;;12.90;57.90;;;;;;4995566;28;20412;-86
2022/05/08 06:37:29;;;;;;;28.50;26.20;;;12.80;58.40;;;;;;4995591;28;20181;-85
2022/05/08 06:39:55;;;;;;;27.00;24.90;;;12.90;59.40;;;;;;5012893;28;20471;-85
2022/05/08 06:42:20;;;;;;;27.77;25.67;;;12.90;60.10;;;;;;4995025;28;20676;-85
2022/05/08 06:44:46;;;;;;;28.43;25.93;;;12.80;59.30;;;;;;4995464;28;20192;-85
2022/05/08 06:47:11;;;;;;;28.00;25.77;;;12.80;60.10;;;;;;4994956;28;20197;-86
2022/05/08 06:49:37;;;;;;;28.07;25.77;;;12.90;60.00;;;;;;4995240;28;20186;-85
2022/05/08 06:52:03;;;;;;;28.27;25.70;;;12.90;58.50;;;;;;4995400;28;20177;-85
2022/05/08 06:54:29;;;;;;;29.60;27.30;;;13.00;58.00;;;;;;4995046;28;20215;-85
2022/05/08 06:56:56;;;;;;;27.10;24.67;;;13.00;58.40;;;;;;4995612;28;20435;-86
2022/05/08 07:02:07;;;;;;;27.03;24.90;;;13.00;58.50;;;;;;5013676;28;20450;-87
2022/05/08 07:04:33;;;;;;;28.43;26.13;;;13.20;58.50;;;;;;4998023;28;20503;-85
2022/05/08 07:07:00;;;;;;;29.23;26.83;;;13.20;58.10;;;;;;4999596;28;20941;-84
2022/05/08 07:09:25;;;;;;;27.17;25.07;;;13.20;57.50;;;;;;4999801;28;20428;-81
2022/05/08 07:11:51;;;;;;;27.00;25.00;;;13.30;57.90;;;;;;4999636;28;20783;-89
2022/05/08 07:14:17;;;;;;;26.57;24.30;;;13.30;58.30;;;;;;4999978;28;20177;-83
2022/05/08 07:16:46;;;;;;;27.93;25.60;;;13.40;58.10;;;;;;5097120;23;20225;-78
2022/05/08 07:19:16;;;;;;;34.83;32.40;;;13.40;57.10;;;;;;4999301;28;20641;-89
2022/05/08 07:21:42;;;;;;;29.27;26.47;;;13.40;58.20;;;;;;4998310;28;20416;-85
2022/05/08 07:24:13;;;;;;;27.70;25.50;;;13.40;57.50;;;;;;4998306;28;20768;-83
2022/05/08 07:26:39;;;;;;;28.13;25.80;;;13.50;57.30;;;;;;4997356;28;20201;-82
2022/05/08 07:29:04;;;;;;;34.00;31.60;;;13.50;57.30;;;;;;4997154;28;21074;-82
2022/05/08 07:31:31;;;;;;;28.63;26.57;;;13.70;57.30;;;;;;4996733;28;20660;-82
2022/05/08 07:36:41;;;;;;;29.53;27.23;;;13.90;55.70;;;;;;5008725;28;20439;-83
2022/05/08 07:39:07;;;;;;;28.30;25.47;;;14.00;55.80;;;;;;4996079;28;20420;-83
2022/05/08 07:41:33;;;;;;;26.80;24.70;;;14.10;56.00;;;;;;4996912;28;20177;-84
2022/05/08 07:43:59;;;;;;;28.03;25.87;;;14.10;55.60;;;;;;4996896;28;20427;-83
2022/05/08 07:46:25;;;;;;;28.40;26.30;;;14.10;55.00;;;;;;4997000;28;20189;-83
2022/05/08 07:48:51;;;;;;;29.50;27.13;;;14.00;54.80;;;;;;4996670;28;20482;-82
2022/05/08 07:51:17;;;;;;;28.57;25.83;;;14.10;55.60;;;;;;4997346;28;20820;-82
2022/05/08 07:53:42;;;;;;;27.53;25.47;;;14.10;55.60;;;;;;4997384;28;20439;-83
2022/05/08 07:56:08;;;;;;;27.00;25.07;;;14.20;55.10;;;;;;4997160;28;20544;-83
2022/05/08 07:58:33;;;;;;;28.50;26.50;;;14.20;55.10;;;;;;4997067;28;20212;-82
2022/05/08 08:01:00;;;;;;;28.53;26.43;;;14.40;55.30;;;;;;4997236;28;20524;-83
2022/05/08 08:03:28;;;;;;;28.27;26.00;;;14.50;55.40;;;;;;4997154;28;20259;-83
2022/05/08 08:05:56;;;;;;;28.73;26.30;;;14.50;53.80;;;;;;4997042;28;20432;-83
2022/05/08 08:08:23;;;;;;;28.87;26.53;;;14.50;53.60;;;;;;4997017;28;20460;-83
2022/05/08 08:10:52;;;;;;;29.27;27.17;;;14.50;53.60;;;;;;4996898;28;20473;-83
2022/05/08 08:13:19;;;;;;;26.67;24.77;;;14.70;52.70;;;;;;4996495;28;20428;-83
2022/05/08 08:15:45;;;;;;;26.30;24.07;;;14.70;52.30;;;;;;4995603;28;20861;-83
2022/05/08 08:18:12;;;;;;;27.40;25.47;;;14.80;52.70;;;;;;4996582;28;20494;-83
2022/05/08 08:20:38;;;;;;;27.13;25.30;;;14.90;53.40;;;;;;4996689;28;20416;-83
2022/05/08 08:23:04;;;;;;;26.37;24.67;;;14.90;52.20;;;;;;4996672;28;20421;-84
2022/05/08 08:25:30;;;;;;;26.57;24.77;;;14.90;52.00;;;;;;4996413;28;20432;-83
2022/05/08 08:27:56;;;;;;;26.10;23.90;;;15.00;51.90;;;;;;4996586;28;20987;-83
2022/05/08 08:30:22;;;;;;;27.10;24.90;;;15.10;52.50;;;;;;4996641;28;20180;-83
2022/05/08 08:32:48;;;;;;;31.87;29.97;;;15.20;50.70;;;;;;4995855;28;20428;-83
2022/05/08 08:35:14;;;;;;;28.93;26.83;;;15.20;51.20;;;;;;4996523;28;20601;-83
2022/05/08 08:37:39;;;;;;;29.40;27.13;;;15.30;50.80;;;;;;4996312;28;20428;-83
2022/05/08 08:40:06;;;;;;;26.57;24.70;;;15.30;51.00;;;;;;4995404;28;20637;-83
2022/05/08 08:42:32;;;;;;;26.70;24.80;;;15.40;50.50;;;;;;4996171;28;20184;-84
2022/05/08 08:47:54;;;;;;;25.00;23.40;;;15.70;49.50;;;;;;5006892;28;20459;-83
2022/05/08 08:50:24;;;;;;;26.13;24.43;;;15.80;49.00;;;;;;4995217;28;20633;-87
2022/05/08 08:52:50;;;;;;;28.67;27.07;;;15.90;47.70;;;;;;4995042;28;20804;-83
2022/05/08 08:55:17;;;;;;;25.57;24.00;;;16.00;46.90;;;;;;4995933;28;20955;-84
2022/05/08 08:57:45;;;;;;;25.53;24.03;;;16.10;47.10;;;;;;4996132;28;20420;-83
2022/05/08 09:00:12;;;;;;;25.90;24.20;;;16.20;47.10;;;;;;4996150;28;20423;-83
2022/05/08 09:02:38;;;;;;;25.63;24.10;;;16.30;47.40;;;;;;4995909;28;20417;-83
2022/05/08 09:05:08;;;;;;;24.83;23.27;;;16.40;46.10;;;;;;4995750;28;20425;-84
2022/05/08 09:07:34;;;;;;;25.70;24.27;;;16.50;47.10;;;;;;4994970;28;20466;-84
2022/05/08 09:10:13;;;;;;;25.90;24.50;;;16.60;46.10;;;;;;4995966;28;20416;-84
2022/05/08 09:12:40;;;;;;;27.30;25.50;;;16.70;45.40;;;;;;4994182;28;20188;-85
2022/05/08 09:15:29;;;;;;;27.83;25.80;;;16.90;44.80;;;;;;4992913;28;20412;-83
2022/05/08 09:18:13;;;;;;;28.50;26.60;;;17.00;45.10;;;;;;4993976;28;20455;-84
2022/05/08 09:20:39;;;;;;;27.30;25.57;;;17.10;44.20;;;;;;4994199;28;20455;-84
2022/05/08 09:23:13;;;;;;;33.27;30.97;;;17.20;44.00;;;;;;4993233;28;20412;-89
2022/05/08 09:26:00;;;;;;;27.53;25.90;;;17.20;44.20;;;;;;4995646;28;20416;-88
2022/05/08 09:28:43;;;;;;;25.40;23.90;;;17.20;42.60;;;;;;4992342;28;20483;-90
2022/05/08 09:31:09;;;;;;;25.53;24.13;;;17.30;42.80;;;;;;4982716;28;20455;-90
2022/05/08 09:33:49;;;;;;;25.70;24.20;;;17.40;42.30;;;;;;4996958;28;20440;-90
2022/05/08 09:36:24;;;;;;;26.00;24.40;;;17.50;41.90;;;;;;4997239;28;20404;-88
2022/05/08 09:38:53;;;;;;;26.17;24.67;;;17.50;42.00;;;;;;4996899;28;20810;-90
2022/05/08 09:41:34;;;;;;;26.30;24.70;;;17.60;42.30;;;;;;4992357;28;20770;-90
2022/05/08 09:44:14;;;;;;;24.67;23.30;;;17.80;40.90;;;;;;4977582;28;20420;-83
2022/05/08 09:46:45;;;;;;;26.23;24.63;;;17.90;41.80;;;;;;4977472;28;20449;-90
2022/05/08 09:49:21;;;;;;;25.53;24.13;;;18.00;41.10;;;;;;4986251;28;20456;-91
2022/05/08 09:51:51;;;;;;;25.30;23.70;;;18.10;39.70;;;;;;4996020;28;20414;-90
2022/05/08 09:54:18;;;;;;;26.33;24.60;;;18.00;38.60;;;;;;4996083;28;20440;-91
2022/05/08 09:56:45;;;;;;;25.07;23.53;;;18.00;39.10;;;;;;4995785;28;20420;-90
2022/05/08 09:59:12;;;;;;;25.20;23.80;;;18.00;39.40;;;;;;5013875;28;20420;-88
2022/05/08 10:01:41;;;;;;;24.03;22.73;;;18.00;38.80;;;;;;4996400;28;20412;-88
2022/05/08 10:04:07;;;;;;;24.63;23.33;;;18.00;38.80;;;;;;4995535;28;20427;-84
2022/05/08 10:06:36;;;;;;;26.90;25.10;;;18.10;38.70;;;;;;4995853;28;20908;-89
2022/05/08 10:14:35;;;;;;;26.07;24.67;;;18.20;38.70;;;;;;5014538;28;20899;-89
2022/05/08 10:17:02;;;;;;;24.20;22.97;;;18.30;37.60;;;;;;4996099;28;20448;-90
2022/05/08 10:19:28;;;;;;;26.60;25.10;;;18.40;38.90;;;;;;4995106;28;20435;-82
2022/05/08 10:22:14;;;;;;;25.20;23.70;;;18.40;37.90;;;;;;4994661;28;20786;-83
2022/05/08 10:24:54;;;;;;;26.27;24.83;;;18.40;36.80;;;;;;4995284;28;20560;-82
2022/05/08 10:27:25;;;;;;;24.43;23.03;;;18.40;37.00;;;;;;4995313;28;20518;-83
2022/05/08 10:29:50;;;;;;;24.80;23.40;;;18.50;37.50;;;;;;4995028;28;20479;-83
2022/05/08 10:32:30;;;;;;;25.60;23.97;;;18.60;37.50;;;;;;4995143;28;20420;-83
2022/05/08 10:35:12;;;;;;;28.87;26.97;;;18.80;37.20;;;;;;4995259;28;20173;-83
2022/05/08 10:37:49;;;;;;;30.63;27.90;;;18.80;37.40;;;;;;4995287;28;20420;-82
2022/05/08 10:40:24;;;;;;;26.80;25.33;;;18.90;38.70;;;;;;4995094;28;20496;-83
2022/05/08 10:42:50;;;;;;;25.80;24.30;;;18.90;37.30;;;;;;5012954;28;20498;-83
2022/05/08 10:45:34;;;;;;;25.47;24.17;;;19.00;36.80;;;;;;4995031;28;20420;-83
2022/05/08 10:48:04;;;;;;;24.53;22.93;;;19.00;36.30;;;;;;5012832;28;20459;-83
2022/05/08 10:50:30;;;;;;;23.87;22.57;;;19.10;38.00;;;;;;4995155;28;20428;-83
2022/05/08 10:52:57;;;;;;;23.93;22.60;;;19.30;34.90;;;;;;4994755;28;20503;-83
2022/05/08 10:55:23;;;;;;;23.10;21.80;;;19.40;35.40;;;;;;4994520;28;20502;-83
2022/05/08 10:57:50;;;;;;;24.00;22.57;;;19.40;34.70;;;;;;4994625;28;20420;-83
2022/05/08 11:00:22;;;;;;;24.13;22.83;;;19.40;34.00;;;;;;4995002;28;20428;-83
2022/05/08 11:02:59;;;;;;;22.33;21.30;;;19.50;33.00;;;;;;4994883;28;20523;-83
2022/05/08 11:05:33;;;;;;;21.53;20.43;;;19.50;29.60;;;;;;4994667;28;20870;-82
2022/05/08 11:08:02;;;;;;;20.67;19.77;;;19.60;29.30;;;;;;4994824;28;20464;-83
2022/05/08 11:10:29;;;;;;;21.50;20.33;;;19.80;28.00;;;;;;4994534;28;20470;-83
2022/05/08 11:13:03;;;;;;;20.77;19.80;;;19.90;28.20;;;;;;4994856;28;20418;-83
2022/05/08 11:15:33;;;;;;;21.20;20.00;;;20.00;28.90;;;;;;4994369;28;20420;-83
2022/05/08 11:18:07;;;;;;;21.00;19.90;;;20.10;29.00;;;;;;4994643;28;20451;-83
2022/05/08 11:21:00;;;;;;;21.07;19.87;;;20.20;28.40;;;;;;4994607;28;20450;-83
2022/05/08 11:23:31;;;;;;;21.20;20.10;;;20.30;29.20;;;;;;4994813;28;20428;-83
2022/05/08 11:25:59;;;;;;;21.20;19.73;;;20.30;27.90;;;;;;4994551;28;20421;-83
2022/05/08 11:28:27;;;;;;;21.87;20.67;;;20.40;27.70;;;;;;4994319;28;20475;-83
2022/05/08 11:30:54;;;;;;;20.90;19.90;;;20.40;27.50;;;;;;4994495;28;20416;-83
2022/05/08 11:36:26;;;;;;;21.40;20.40;;;20.40;28.30;;;;;;5012646;28;20842;-83
2022/05/08 11:38:58;;;;;;;22.50;21.10;;;20.10;27.50;;;;;;4994670;28;20474;-84
2022/05/08 11:41:32;;;;;;;22.03;20.43;;;20.10;27.90;;;;;;4994413;28;20420;-83
2022/05/08 11:44:14;;;;;;;20.53;19.63;;;20.00;28.10;;;;;;4994308;28;20796;-84
2022/05/08 11:46:47;;;;;;;21.87;20.77;;;20.00;27.50;;;;;;4994326;28;20447;-82
2022/05/08 11:49:19;;;;;;;21.37;20.33;;;19.90;27.60;;;;;;4994454;28;20419;-82
2022/05/08 11:51:48;;;;;;;20.93;20.03;;;19.90;28.00;;;;;;4996692;28;20954;-82
2022/05/08 11:54:40;;;;;;;18.93;18.03;;;19.90;27.90;;;;;;4997805;28;20455;-84
2022/05/08 11:57:10;;;;;;;20.57;19.57;;;20.10;27.30;;;;;;4998023;28;20870;-83
2022/05/08 11:59:36;;;;;;;20.67;19.67;;;20.20;27.60;;;;;;4997781;28;20486;-83
2022/05/08 12:02:03;;;;;;;20.20;19.20;;;20.20;27.30;;;;;;4997752;28;20825;-82
2022/05/08 12:04:33;;;;;;;20.80;19.70;;;20.30;26.90;;;;;;4997630;28;20189;-83
2022/05/08 12:07:08;;;;;;;21.27;20.17;;;20.30;26.80;;;;;;4997792;28;20555;-83
2022/05/08 12:09:38;;;;;;;20.43;19.43;;;20.40;27.10;;;;;;4997726;28;20785;-83
2022/05/08 12:12:28;;;;;;;20.53;19.37;;;20.40;26.70;;;;;;4997552;28;20416;-83
2022/05/08 12:15:04;;;;;;;20.53;19.53;;;20.60;26.60;;;;;;4997441;28;20451;-83
2022/05/08 12:17:50;;;;;;;20.20;19.30;;;20.60;26.50;;;;;;4997154;28;20530;-83
2022/05/08 12:20:26;;;;;;;19.27;18.33;;;20.60;26.70;;;;;;4996802;28;20837;-83
2022/05/08 12:23:00;;;;;;;19.90;19.00;;;20.60;26.60;;;;;;4997106;28;20450;-83
2022/05/08 12:25:26;;;;;;;22.23;21.03;;;20.60;27.00;;;;;;4996886;28;20779;-82
2022/05/08 12:27:52;;;;;;;20.07;18.80;;;20.60;27.10;;;;;;4997008;28;20456;-83
2022/05/08 12:30:18;;;;;;;20.50;19.50;;;20.60;27.80;;;;;;5014565;28;20420;-83
2022/05/08 12:32:44;;;;;;;21.07;19.57;;;20.50;27.30;;;;;;4996994;28;20227;-83
2022/05/08 12:35:09;;;;;;;19.73;18.73;;;20.60;28.10;;;;;;5014385;28;20775;-83
2022/05/08 12:37:37;;;;;;;20.27;19.30;;;20.70;28.20;;;;;;4996908;28;20178;-83
2022/05/08 12:40:04;;;;;;;20.67;19.57;;;20.60;27.50;;;;;;4996888;28;20270;-83
2022/05/08 12:42:30;;;;;;;20.30;19.30;;;20.70;27.10;;;;;;4996616;28;20421;-84
2022/05/08 12:44:55;;;;;;;21.70;20.50;;;20.90;27.00;;;;;;4996710;28;20467;-84
2022/05/08 12:47:21;;;;;;;20.13;19.13;;;20.90;26.40;;;;;;4997078;28;20201;-83
2022/05/08 12:49:49;;;;;;;20.20;19.20;;;20.90;27.50;;;;;;4996238;28;20826;-84
2022/05/08 12:52:15;;;;;;;20.93;19.83;;;20.90;26.40;;;;;;4996698;28;20264;-83
2022/05/08 12:54:41;;;;;;;20.40;19.30;;;20.90;26.50;;;;;;4996422;28;20782;-82
2022/05/08 12:57:08;;;;;;;20.23;19.13;;;20.80;26.30;;;;;;4996643;28;20515;-89
2022/05/08 12:59:46;;;;;;;19.70;18.70;;;20.70;26.60;;;;;;4996738;28;20420;-82
2022/05/08 13:02:18;;;;;;;19.73;18.83;;;20.70;26.10;;;;;;4997585;28;20427;-89
2022/05/08 13:04:50;;;;;;;20.13;19.13;;;20.80;25.90;;;;;;4997800;28;20451;-89